sensor_id;sensor_type;location;lat;lon;timestamp;pressure;altitude;pressure_sealevel;temperature;humidity
71642;BME280;60657;50.122;14.468;2023-03-23T00:00:48;97646.08362875746;;;13.51758602273594;58.202334630350194
71642;BME280;60657;50.122;14.468;2023-03-23T00:04:04;97645.29572063322;;;13.461509117265585;58.31296253910125
71642;BME280;60657;50.122;14.468;2023-03-23T00:07:19;97653.62245784634;;;13.51758602273594;58.16418707560845
71642;BME280;60657;50.122;14.468;2023-03-23T00:10:36;97651.9776375981;;;13.488212405584804;58.290074006256205
71642;BME280;60657;50.122;14.468;2023-03-23T00:13:52;97647.00907165966;;;13.464179446097504;58.391165026321815
71642;BME280;60657;50.122;14.468;2023-03-23T00:17:08;97640.4643040383;;;13.437476157778285;58.541847867551695
71642;BME280;60657;50.122;14.468;2023-03-23T00:20:25;97647.31368963825;;;13.282597085526817;58.932860303654536
71642;BME280;60657;50.122;14.468;2023-03-23T00:23:41;97647.57857783846;;;13.255893797207598;59.06065461203937
71642;BME280;60657;50.122;14.468;2023-03-23T00:26:56;97652.77364436963;;;13.098344396124212;59.2189669642176
71642;BME280;60657;50.122;14.468;2023-03-23T00:30:12;97650.46519825638;;;13.01556420233463;59.377279316395814
71642;BME280;60657;50.122;14.468;2023-03-23T00:33:29;97651.3825120807;;;13.020904859998474;59.537499046311126
71642;BME280;60657;50.122;14.468;2023-03-23T00:36:47;97655.55879921466;;;12.95681696803235;59.81979095140001
71642;BME280;60657;50.122;14.468;2023-03-23T00:40:05;97648.1543471661;;;12.866025787747006;60.04867627985047
71642;BME280;60657;50.122;14.468;2023-03-23T00:43:21;97648.09175521185;;;12.903410391393912;59.60616464484626
71642;BME280;60657;50.122;14.468;2023-03-23T00:46:37;97636.51188957963;;;12.916762035553518;59.688181887541006
71642;BME280;60657;50.122;14.468;2023-03-23T00:49:53;97638.09406037157;;;12.975509269855799;59.51461051346608
71642;BME280;60657;50.122;14.468;2023-03-23T00:53:09;97634.89803653161;;;12.951476310368506;59.50888838025483
71642;BME280;60657;50.122;14.468;2023-03-23T00:56:25;97627.40055834343;;;12.964827954528111;59.19798580910964
71642;BME280;60657;50.122;14.468;2023-03-23T00:59:40;97621.5797393919;;;12.916762035553518;59.41733424887465
71642;BME280;60657;50.122;14.468;2023-03-23T01:02:56;97616.6131588072;;;12.836652170595862;59.9838254367895
71642;BME280;60657;50.122;14.468;2023-03-23T01:06:12;97621.64277533254;;;12.855344472419318;59.82742046234836
71642;BME280;60657;50.122;14.468;2023-03-23T01:09:28;97616.83248979315;;;12.767223620965893;60.07537956816968
71642;BME280;60657;50.122;14.468;2023-03-23T01:12:44;97612.68879499141;;;12.775234607461663;60.119249256122686
71642;BME280;60657;50.122;14.468;2023-03-23T01:16:00;97608.60724767535;;;12.729839017318987;60.29091325246051
71642;BME280;60657;50.122;14.468;2023-03-23T01:19:17;97600.32050766023;;;12.673762111848632;60.30807965209431
71642;BME280;60657;50.122;14.468;2023-03-23T01:22:33;97598.55092207185;;;12.748531319142444;60.2050812542916
71642;BME280;60657;50.122;14.468;2023-03-23T01:25:49;97604.494764286;;;12.68444342717632;60.44159609369039
71642;BME280;60657;50.122;14.468;2023-03-23T01:29:05;97607.87714336246;;;12.711146715495538;60.39391165026322
71642;BME280;60657;50.122;14.468;2023-03-23T01:32:21;97602.94203026037;;;12.660410467689019;60.542687113756
71642;BME280;60657;50.122;14.468;2023-03-23T15:31:24;97469.7063815522;;;18.505760280766005;49.775539787899596
71642;BME280;60657;50.122;14.468;2023-03-23T15:34:41;97489.31714439606;;;18.300144960708018;50.17990386816205
71642;BME280;60657;50.122;14.468;2023-03-23T15:38:00;97482.70648065621;;;18.350881208514537;50.27718013275349
71642;BME280;60657;50.122;14.468;2023-03-23T15:41:21;97493.96101307747;;;18.516441596093692;50.30388342107271
71642;BME280;60657;50.122;14.468;2023-03-23T15:44:39;97510.19007900983;;;18.596551461051348;50.09407186999314
71642;BME280;60657;50.122;14.468;2023-03-23T15:47:57;97512.57766532229;;;18.649958037689785;50.231403067063404
71642;BME280;60657;50.122;14.468;2023-03-23T15:51:21;97529.5411685239;;;18.60456244754711;50.44121461814298
71642;BME280;60657;50.122;14.468;2023-03-23T15:54:45;97543.03135309964;;;18.575188830395973;50.746395056076906
71642;BME280;60657;50.122;14.468;2023-03-23T15:58:07;97539.46337950189;;;18.393606469825286;51.259479667353325
71642;BME280;60657;50.122;14.468;2023-03-23T16:01:27;97551.63512972086;;;18.244068055237662;51.73823147936217
71642;BME280;60657;50.122;14.468;2023-03-23T16:04:45;97553.53448367996;;;17.97703517204547;52.40390630960555
71642;BME280;60657;50.122;14.468;2023-03-23T21:09:21;97605.66838358897;;;16.70595864805066;56.35408560311284
71642;BME280;60657;50.122;14.468;2023-03-23T21:12:38;97607.46995937524;;;16.679255359731442;56.51621271076524
71642;BME280;60657;50.122;14.468;2023-03-23T21:15:54;97607.46995937524;;;16.743343251697567;56.75082017242695
71642;BME280;60657;50.122;14.468;2023-03-23T21:19:10;97615.17195623927;;;16.66323338673991;56.571526665140766
71642;BME280;60657;50.122;14.468;2023-03-23T21:22:27;97617.84491984082;;;16.575112535286486;56.76798657206073
71642;BME280;60657;50.122;14.468;2023-03-23T21:25:43;97617.18306646076;;;16.55374990463111;56.87670710307469
71642;BME280;60657;50.122;14.468;2023-03-23T21:29:00;97618.92874991812;;;16.540398260471505;56.88242923628595
71642;BME280;60657;50.122;14.468;2023-03-23T21:32:16;97610.98709666569;;;16.40955214770733;57.290608072022586
71642;BME280;60657;50.122;14.468;2023-03-23T21:35:32;97619.65516767713;;;16.28137636377508;57.662546730754556
71642;BME280;60657;50.122;14.468;2023-03-23T21:38:48;97619.7575376584;;;16.313420309758143;57.63775082017243
71642;BME280;60657;50.122;14.468;2023-03-23T21:42:04;97603.7598816749;;;16.342793926909287;57.485160601205465
71642;BME280;60657;50.122;14.468;2023-03-23T21:45:20;97618.98815262187;;;16.313420309758143;57.66636148622873
71642;BME280;60657;50.122;14.468;2023-03-23T21:48:36;97597.91469661392;;;16.31609063859007;57.78461890592813
71642;BME280;60657;50.122;14.468;2023-03-23T21:51:52;97598.8382295867;;;16.297398336766612;57.883802548256654
71642;BME280;60657;50.122;14.468;2023-03-23T21:55:07;97588.12361153861;;;16.225299458304725;57.979171435111006
71642;BME280;60657;50.122;14.468;2023-03-23T21:58:25;97593.14790830205;;;16.235980773632413;58.14702067597467
71642;BME280;60657;50.122;14.468;2023-03-23T22:01:41;97603.50195069969;;;16.14518959334707;58.54566262302586
71642;BME280;60657;50.122;14.468;2023-03-23T22:04:56;97588.73552544428;;;16.05973907072557;58.73830777447165
71642;BME280;60657;50.122;14.468;2023-03-23T22:08:12;97592.41809497321;;;15.966277561608301;59.150301365682466
71642;BME280;60657;50.122;14.468;2023-03-23T22:11:28;97596.61975212685;;;15.910200656137938;59.36202029449912
71642;BME280;60657;50.122;14.468;2023-03-23T22:14:45;97603.13369447857;;;15.98496986343175;59.11406118867781
71642;BME280;60657;50.122;14.468;2023-03-23T22:18:01;97595.59992732598;;;15.995651178759438;59.11406118867781
71642;BME280;60657;50.122;14.468;2023-03-23T22:21:17;97602.46232841288;;;15.995651178759438;59.21133745326925
71642;BME280;60657;50.122;14.468;2023-03-23T22:24:35;97586.52566100957;;;15.931563286793313;59.4402227817197
71642;BME280;60657;50.122;14.468;2023-03-23T22:27:51;97587.54536333225;;;15.918211642633707;59.493629358358135
71642;BME280;60657;50.122;14.468;2023-03-23T22:31:07;97590.97571039683;;;15.848783093003739;59.621423666742956
71642;BME280;60657;50.122;14.468;2023-03-23T22:34:26;97584.46155535255;;;15.824750133516439;59.65766384374761
71642;BME280;60657;50.122;14.468;2023-03-23T22:37:42;97581.85216490357;;;15.859464408331426;59.6309605554284
71642;BME280;60657;50.122;14.468;2023-03-23T22:40:58;97581.75298110842;;;15.944914930952926;59.4230563820859
71642;BME280;60657;50.122;14.468;2023-03-23T22:44:15;97574.12073374611;;;15.987640192263676;59.342946517128254
71642;BME280;60657;50.122;14.468;2023-03-23T22:47:32;97579.81271028574;;;16.011673151750976;59.325780117494475
71642;BME280;60657;50.122;14.468;2023-03-23T22:50:48;97576.43104780199;;;16.00900282291905;59.203707942320904
71642;BME280;60657;50.122;14.468;2023-03-23T22:54:04;97568.22850581678;;;15.958266575112532;59.40588998245212
71642;BME280;60657;50.122;14.468;2023-03-23T22:57:20;97574.790511038;;;15.966277561608301;59.40398260471504
71642;BME280;60657;50.122;14.468;2023-03-23T23:00:36;97572.53012793137;;;15.904859998474095;59.63477531090257
71642;BME280;60657;50.122;14.468;2023-03-23T23:03:52;97569.24898533164;;;15.878156710154876;59.67292286564431
71642;BME280;60657;50.122;14.468;2023-03-23T23:07:08;97560.79633840582;;;15.910200656137938;59.69199664301519
71642;BME280;60657;50.122;14.468;2023-03-23T23:10:26;97566.78816564659;;;15.856794079499501;59.74731059739071
71642;BME280;60657;50.122;14.468;2023-03-23T23:13:42;97562.0651160768;;;15.82207980468452;59.99526970321202
71642;BME280;60657;50.122;14.468;2023-03-23T23:16:58;97552.2219508547;;;15.71259632257572;60.22987716487373
71642;BME280;60657;50.122;14.468;2023-03-23T23:20:16;97558.98094410945;;;15.701915007248033;60.277561608300914
71642;BME280;60657;50.122;14.468;2023-03-23T23:23:32;97558.20964323467;;;15.685893034256502;60.3385976958877
71642;BME280;60657;50.122;14.468;2023-03-23T23:26:48;97553.53124844866;;;15.589761196307315;60.72198062104219
71642;BME280;60657;50.122;14.468;2023-03-23T23:30:04;97545.37633482243;;;15.531013962005034;60.87647821774624
71642;BME280;60657;50.122;14.468;2023-03-23T23:33:20;97547.11340702191;;;15.533684290836959;60.80209048599984
71642;BME280;60657;50.122;14.468;2023-03-23T23:36:37;97542.23944546301;;;15.426871137560084;61.1187151903563
71642;BME280;60657;50.122;14.468;2023-03-23T23:39:52;97539.77847008983;;;15.429541466392003;61.08438239108874
71642;BME280;60657;50.122;14.468;2023-03-23T23:43:09;97534.80867383275;;;15.36278324559396;61.309452964065
71642;BME280;60657;50.122;14.468;2023-03-23T23:46:27;97531.38331242595;;;15.442893110551616;61.105363546196685
71642;BME280;60657;50.122;14.468;2023-03-23T23:49:44;97533.79578418638;;;15.49095902952621;60.93560692759594
71642;BME280;60657;50.122;14.468;2023-03-23T23:53:00;97533.5042584163;;;15.541695277332721;60.6762035553521
71642;BME280;60657;50.122;14.468;2023-03-23T23:56:16;97529.25655669883;;;15.523002975509272;60.77729457541771
71642;BME280;60657;50.122;14.468;2023-03-23T23:59:32;97536.73611259325;;;15.589761196307315;60.5579461356527
